sensor_id;sensor_type;location;lat;lon;timestamp;P1;durP1;ratioP1;P2;durP2;ratioP2
38944;SDS011;24732;49.088;8.286;2022-08-19T00:01:59;17.60;;;15.70;;
38944;SDS011;24732;49.088;8.286;2022-08-19T00:04:45;16.95;;;15.35;;
38944;SDS011;24732;49.088;8.286;2022-08-19T00:07:33;16.45;;;14.85;;
38944;SDS011;24732;49.088;8.286;2022-08-19T00:10:20;16.85;;;15.18;;
38944;SDS011;24732;49.088;8.286;2022-08-19T00:13:06;16.00;;;14.50;;
38944;SDS011;24732;49.088;8.286;2022-08-19T00:15:53;17.10;;;15.50;;
38944;SDS011;24732;49.088;8.286;2022-08-19T00:18:39;17.20;;;15.50;;
38944;SDS011;24732;49.088;8.286;2022-08-19T00:21:26;16.63;;;15.03;;
38944;SDS011;24732;49.088;8.286;2022-08-19T00:24:13;16.08;;;14.45;;
38944;SDS011;24732;49.088;8.286;2022-08-19T00:27:00;15.80;;;14.40;;
38944;SDS011;24732;49.088;8.286;2022-08-19T00:29:47;15.80;;;14.30;;
38944;SDS011;24732;49.088;8.286;2022-08-19T00:32:33;16.35;;;14.82;;
38944;SDS011;24732;49.088;8.286;2022-08-19T00:35:20;15.85;;;14.35;;
38944;SDS011;24732;49.088;8.286;2022-08-19T00:38:06;17.13;;;15.43;;
38944;SDS011;24732;49.088;8.286;2022-08-19T00:40:52;17.33;;;15.68;;
38944;SDS011;24732;49.088;8.286;2022-08-19T00:43:39;18.02;;;16.23;;
38944;SDS011;24732;49.088;8.286;2022-08-19T00:46:26;17.57;;;15.97;;
38944;SDS011;24732;49.088;8.286;2022-08-19T00:49:24;17.33;;;15.73;;
38944;SDS011;24732;49.088;8.286;2022-08-19T00:52:16;16.83;;;15.23;;
38944;SDS011;24732;49.088;8.286;2022-08-19T00:55:04;17.17;;;15.48;;
38944;SDS011;24732;49.088;8.286;2022-08-19T00:57:53;16.60;;;15.07;;
38944;SDS011;24732;49.088;8.286;2022-08-19T01:00:41;16.10;;;14.50;;
38944;SDS011;24732;49.088;8.286;2022-08-19T01:03:27;15.70;;;14.13;;
38944;SDS011;24732;49.088;8.286;2022-08-19T01:06:14;15.48;;;13.98;;
38944;SDS011;24732;49.088;8.286;2022-08-19T01:09:00;15.35;;;13.93;;
38944;SDS011;24732;49.088;8.286;2022-08-19T01:11:47;16.00;;;14.40;;
38944;SDS011;24732;49.088;8.286;2022-08-19T01:14:33;16.07;;;14.57;;
38944;SDS011;24732;49.088;8.286;2022-08-19T01:17:20;16.60;;;15.05;;
38944;SDS011;24732;49.088;8.286;2022-08-19T01:20:10;17.40;;;15.60;;
38944;SDS011;24732;49.088;8.286;2022-08-19T01:22:58;16.88;;;15.27;;
38944;SDS011;24732;49.088;8.286;2022-08-19T01:25:48;16.35;;;14.80;;
38944;SDS011;24732;49.088;8.286;2022-08-19T01:28:35;16.35;;;14.77;;
38944;SDS011;24732;49.088;8.286;2022-08-19T01:31:23;16.90;;;15.20;;
38944;SDS011;24732;49.088;8.286;2022-08-19T01:34:09;16.45;;;14.95;;
38944;SDS011;24732;49.088;8.286;2022-08-19T01:36:56;16.23;;;14.65;;
38944;SDS011;24732;49.088;8.286;2022-08-19T01:39:42;16.70;;;15.20;;
38944;SDS011;24732;49.088;8.286;2022-08-19T01:42:29;16.98;;;15.38;;
38944;SDS011;24732;49.088;8.286;2022-08-19T01:45:17;16.48;;;14.88;;
38944;SDS011;24732;49.088;8.286;2022-08-19T01:48:04;16.60;;;15.00;;
38944;SDS011;24732;49.088;8.286;2022-08-19T01:50:50;16.50;;;15.00;;
38944;SDS011;24732;49.088;8.286;2022-08-19T01:53:37;17.40;;;15.60;;
38944;SDS011;24732;49.088;8.286;2022-08-19T01:56:23;17.00;;;15.40;;
38944;SDS011;24732;49.088;8.286;2022-08-19T01:59:10;16.80;;;15.20;;
38944;SDS011;24732;49.088;8.286;2022-08-19T02:01:57;16.80;;;15.20;;
38944;SDS011;24732;49.088;8.286;2022-08-19T02:04:44;16.13;;;14.63;;
38944;SDS011;24732;49.088;8.286;2022-08-19T02:07:31;16.67;;;15.15;;
38944;SDS011;24732;49.088;8.286;2022-08-19T02:10:19;16.63;;;15.13;;
38944;SDS011;24732;49.088;8.286;2022-08-19T02:13:06;16.80;;;15.20;;
38944;SDS011;24732;49.088;8.286;2022-08-19T02:15:53;16.50;;;14.90;;
38944;SDS011;24732;49.088;8.286;2022-08-19T02:18:39;16.67;;;15.10;;
38944;SDS011;24732;49.088;8.286;2022-08-19T02:21:26;16.52;;;15.02;;
38944;SDS011;24732;49.088;8.286;2022-08-19T02:24:12;16.17;;;14.68;;
38944;SDS011;24732;49.088;8.286;2022-08-19T02:26:59;17.17;;;15.47;;
38944;SDS011;24732;49.088;8.286;2022-08-19T02:29:45;17.10;;;15.40;;
38944;SDS011;24732;49.088;8.286;2022-08-19T02:32:32;17.57;;;15.87;;
38944;SDS011;24732;49.088;8.286;2022-08-19T02:35:19;16.98;;;15.35;;
38944;SDS011;24732;49.088;8.286;2022-08-19T02:38:05;17.70;;;16.00;;
38944;SDS011;24732;49.088;8.286;2022-08-19T02:41:19;17.73;;;16.00;;
38944;SDS011;24732;49.088;8.286;2022-08-19T02:44:05;17.40;;;15.70;;
38944;SDS011;24732;49.088;8.286;2022-08-19T02:46:52;17.30;;;15.60;;
38944;SDS011;24732;49.088;8.286;2022-08-19T02:49:38;17.13;;;15.52;;
38944;SDS011;24732;49.088;8.286;2022-08-19T02:52:24;17.58;;;15.90;;
38944;SDS011;24732;49.088;8.286;2022-08-19T02:55:12;17.88;;;16.17;;
38944;SDS011;24732;49.088;8.286;2022-08-19T02:57:58;18.25;;;16.55;;
38944;SDS011;24732;49.088;8.286;2022-08-19T03:00:46;18.73;;;16.92;;
38944;SDS011;24732;49.088;8.286;2022-08-19T03:03:33;18.20;;;16.50;;
38944;SDS011;24732;49.088;8.286;2022-08-19T03:06:20;18.37;;;16.57;;
38944;SDS011;24732;49.088;8.286;2022-08-19T03:09:07;18.08;;;16.35;;
38944;SDS011;24732;49.088;8.286;2022-08-19T03:11:53;18.02;;;16.33;;
38944;SDS011;24732;49.088;8.286;2022-08-19T03:14:40;18.55;;;16.83;;
38944;SDS011;24732;49.088;8.286;2022-08-19T03:17:26;18.50;;;16.60;;
38944;SDS011;24732;49.088;8.286;2022-08-19T03:20:13;18.48;;;16.67;;
38944;SDS011;24732;49.088;8.286;2022-08-19T03:22:59;18.30;;;16.50;;
38944;SDS011;24732;49.088;8.286;2022-08-19T03:25:47;18.95;;;17.10;;
38944;SDS011;24732;49.088;8.286;2022-08-19T03:28:33;18.73;;;16.90;;
38944;SDS011;24732;49.088;8.286;2022-08-19T03:31:20;18.92;;;17.05;;
38944;SDS011;24732;49.088;8.286;2022-08-19T03:34:08;19.30;;;17.40;;
38944;SDS011;24732;49.088;8.286;2022-08-19T03:36:58;19.48;;;17.58;;
38944;SDS011;24732;49.088;8.286;2022-08-19T03:39:45;19.25;;;17.45;;
38944;SDS011;24732;49.088;8.286;2022-08-19T03:42:32;18.92;;;17.13;;
38944;SDS011;24732;49.088;8.286;2022-08-19T03:45:18;19.67;;;17.73;;
38944;SDS011;24732;49.088;8.286;2022-08-19T03:48:04;19.95;;;18.05;;
38944;SDS011;24732;49.088;8.286;2022-08-19T03:50:51;19.48;;;17.63;;
38944;SDS011;24732;49.088;8.286;2022-08-19T03:53:37;19.38;;;17.58;;
38944;SDS011;24732;49.088;8.286;2022-08-19T03:56:24;19.25;;;17.45;;
38944;SDS011;24732;49.088;8.286;2022-08-19T03:59:13;20.58;;;18.63;;
38944;SDS011;24732;49.088;8.286;2022-08-19T04:02:00;19.45;;;17.55;;
38944;SDS011;24732;49.088;8.286;2022-08-19T04:04:47;20.67;;;18.67;;
38944;SDS011;24732;49.088;8.286;2022-08-19T04:07:33;20.23;;;18.33;;
38944;SDS011;24732;49.088;8.286;2022-08-19T04:10:20;19.75;;;17.85;;
38944;SDS011;24732;49.088;8.286;2022-08-19T04:13:06;19.92;;;18.13;;
38944;SDS011;24732;49.088;8.286;2022-08-19T04:15:54;20.05;;;18.15;;
38944;SDS011;24732;49.088;8.286;2022-08-19T04:18:43;19.83;;;17.88;;
38944;SDS011;24732;49.088;8.286;2022-08-19T04:21:30;19.25;;;17.40;;
38944;SDS011;24732;49.088;8.286;2022-08-19T04:24:17;19.23;;;17.45;;
38944;SDS011;24732;49.088;8.286;2022-08-19T04:27:03;19.08;;;17.27;;
38944;SDS011;24732;49.088;8.286;2022-08-19T04:29:51;19.60;;;17.70;;
38944;SDS011;24732;49.088;8.286;2022-08-19T04:32:39;20.30;;;18.30;;
38944;SDS011;24732;49.088;8.286;2022-08-19T04:35:33;21.15;;;19.15;;
38944;SDS011;24732;49.088;8.286;2022-08-19T04:38:21;20.70;;;18.70;;
38944;SDS011;24732;49.088;8.286;2022-08-19T04:41:10;20.67;;;18.77;;
38944;SDS011;24732;49.088;8.286;2022-08-19T04:44:15;20.77;;;18.67;;
38944;SDS011;24732;49.088;8.286;2022-08-19T04:47:03;20.08;;;18.17;;
38944;SDS011;24732;49.088;8.286;2022-08-19T04:49:51;20.40;;;18.50;;
38944;SDS011;24732;49.088;8.286;2022-08-19T04:52:38;20.25;;;18.35;;
38944;SDS011;24732;49.088;8.286;2022-08-19T04:55:28;19.58;;;17.88;;
38944;SDS011;24732;49.088;8.286;2022-08-19T04:58:14;19.95;;;18.15;;
38944;SDS011;24732;49.088;8.286;2022-08-19T05:01:01;20.50;;;18.60;;
38944;SDS011;24732;49.088;8.286;2022-08-19T05:03:48;22.10;;;19.90;;
38944;SDS011;24732;49.088;8.286;2022-08-19T05:06:35;22.42;;;20.30;;
38944;SDS011;24732;49.088;8.286;2022-08-19T05:09:21;19.63;;;17.80;;
38944;SDS011;24732;49.088;8.286;2022-08-19T05:12:08;20.40;;;18.40;;
38944;SDS011;24732;49.088;8.286;2022-08-19T05:14:54;19.45;;;17.58;;
38944;SDS011;24732;49.088;8.286;2022-08-19T05:17:42;18.88;;;17.08;;
38944;SDS011;24732;49.088;8.286;2022-08-19T05:20:48;18.73;;;16.92;;
38944;SDS011;24732;49.088;8.286;2022-08-19T05:23:53;19.47;;;17.67;;
38944;SDS011;24732;49.088;8.286;2022-08-19T05:26:41;19.58;;;17.77;;
38944;SDS011;24732;49.088;8.286;2022-08-19T05:29:28;18.95;;;17.25;;
38944;SDS011;24732;49.088;8.286;2022-08-19T05:32:14;19.00;;;17.23;;
38944;SDS011;24732;49.088;8.286;2022-08-19T05:35:01;19.58;;;17.60;;
38944;SDS011;24732;49.088;8.286;2022-08-19T05:37:47;19.80;;;17.90;;
38944;SDS011;24732;49.088;8.286;2022-08-19T05:40:34;20.40;;;18.42;;
38944;SDS011;24732;49.088;8.286;2022-08-19T05:43:21;18.98;;;17.17;;
38944;SDS011;24732;49.088;8.286;2022-08-19T05:46:07;19.63;;;17.80;;
38944;SDS011;24732;49.088;8.286;2022-08-19T05:48:54;18.90;;;17.13;;
38944;SDS011;24732;49.088;8.286;2022-08-19T05:51:42;19.10;;;17.38;;
38944;SDS011;24732;49.088;8.286;2022-08-19T05:54:28;19.43;;;17.63;;
38944;SDS011;24732;49.088;8.286;2022-08-19T05:57:15;19.25;;;17.45;;
38944;SDS011;24732;49.088;8.286;2022-08-19T06:00:03;19.23;;;17.45;;
38944;SDS011;24732;49.088;8.286;2022-08-19T06:02:53;19.73;;;17.92;;
38944;SDS011;24732;49.088;8.286;2022-08-19T06:05:41;19.20;;;17.50;;
38944;SDS011;24732;49.088;8.286;2022-08-19T06:08:28;20.17;;;18.27;;
38944;SDS011;24732;49.088;8.286;2022-08-19T06:11:22;19.83;;;17.87;;
38944;SDS011;24732;49.088;8.286;2022-08-19T06:14:13;18.60;;;16.80;;
38944;SDS011;24732;49.088;8.286;2022-08-19T06:17:00;19.10;;;17.30;;
38944;SDS011;24732;49.088;8.286;2022-08-19T06:19:47;18.48;;;16.77;;
38944;SDS011;24732;49.088;8.286;2022-08-19T06:22:39;18.20;;;16.55;;
38944;SDS011;24732;49.088;8.286;2022-08-19T06:25:25;18.33;;;16.53;;
38944;SDS011;24732;49.088;8.286;2022-08-19T06:28:11;18.85;;;17.15;;
38944;SDS011;24732;49.088;8.286;2022-08-19T06:30:58;18.40;;;16.70;;
38944;SDS011;24732;49.088;8.286;2022-08-19T06:33:47;18.25;;;16.45;;
38944;SDS011;24732;49.088;8.286;2022-08-19T06:36:35;18.30;;;16.52;;
38944;SDS011;24732;49.088;8.286;2022-08-19T06:39:23;18.17;;;16.38;;
38944;SDS011;24732;49.088;8.286;2022-08-19T06:42:10;17.60;;;15.90;;
38944;SDS011;24732;49.088;8.286;2022-08-19T06:45:01;18.33;;;16.30;;
38944;SDS011;24732;49.088;8.286;2022-08-19T06:47:49;18.20;;;16.50;;
38944;SDS011;24732;49.088;8.286;2022-08-19T06:50:39;17.27;;;15.70;;
38944;SDS011;24732;49.088;8.286;2022-08-19T06:53:25;17.45;;;15.82;;
38944;SDS011;24732;49.088;8.286;2022-08-19T06:56:13;16.90;;;15.30;;
38944;SDS011;24732;49.088;8.286;2022-08-19T06:59:02;17.70;;;15.90;;
38944;SDS011;24732;49.088;8.286;2022-08-19T07:01:50;17.13;;;15.52;;
38944;SDS011;24732;49.088;8.286;2022-08-19T07:04:37;16.80;;;15.30;;
38944;SDS011;24732;49.088;8.286;2022-08-19T07:07:23;16.30;;;14.82;;
38944;SDS011;24732;49.088;8.286;2022-08-19T07:10:10;16.42;;;14.88;;
38944;SDS011;24732;49.088;8.286;2022-08-19T07:12:56;15.93;;;14.40;;
38944;SDS011;24732;49.088;8.286;2022-08-19T07:15:44;15.98;;;14.57;;
38944;SDS011;24732;49.088;8.286;2022-08-19T07:18:32;16.10;;;14.50;;
38944;SDS011;24732;49.088;8.286;2022-08-19T07:21:20;15.05;;;13.73;;
38944;SDS011;24732;49.088;8.286;2022-08-19T07:24:07;15.02;;;13.63;;
38944;SDS011;24732;49.088;8.286;2022-08-19T07:26:54;14.73;;;13.43;;
38944;SDS011;24732;49.088;8.286;2022-08-19T07:29:42;15.30;;;13.90;;
38944;SDS011;24732;49.088;8.286;2022-08-19T07:32:28;15.07;;;13.68;;
38944;SDS011;24732;49.088;8.286;2022-08-19T07:35:16;15.05;;;13.65;;
38944;SDS011;24732;49.088;8.286;2022-08-19T07:38:04;14.07;;;12.77;;
38944;SDS011;24732;49.088;8.286;2022-08-19T07:40:50;13.48;;;12.18;;
38944;SDS011;24732;49.088;8.286;2022-08-19T07:43:37;13.70;;;12.50;;
38944;SDS011;24732;49.088;8.286;2022-08-19T07:46:24;13.18;;;11.88;;
38944;SDS011;24732;49.088;8.286;2022-08-19T07:49:12;12.35;;;11.25;;
38944;SDS011;24732;49.088;8.286;2022-08-19T07:52:04;13.38;;;12.18;;
38944;SDS011;24732;49.088;8.286;2022-08-19T07:54:51;12.07;;;10.97;;
38944;SDS011;24732;49.088;8.286;2022-08-19T07:57:38;12.90;;;11.70;;
38944;SDS011;24732;49.088;8.286;2022-08-19T08:00:24;12.23;;;11.13;;
38944;SDS011;24732;49.088;8.286;2022-08-19T08:03:11;11.55;;;10.35;;
38944;SDS011;24732;49.088;8.286;2022-08-19T08:05:57;11.25;;;10.23;;
38944;SDS011;24732;49.088;8.286;2022-08-19T08:09:03;11.53;;;10.37;;
38944;SDS011;24732;49.088;8.286;2022-08-19T08:14:58;11.65;;;10.52;;
38944;SDS011;24732;49.088;8.286;2022-08-19T08:17:46;10.63;;;9.63;;
38944;SDS011;24732;49.088;8.286;2022-08-19T08:20:34;11.90;;;10.70;;
38944;SDS011;24732;49.088;8.286;2022-08-19T08:23:20;11.85;;;10.55;;
38944;SDS011;24732;49.088;8.286;2022-08-19T08:26:14;11.38;;;10.27;;
38944;SDS011;24732;49.088;8.286;2022-08-19T08:29:01;11.10;;;9.90;;
38944;SDS011;24732;49.088;8.286;2022-08-19T08:31:48;11.18;;;10.07;;
38944;SDS011;24732;49.088;8.286;2022-08-19T08:34:34;10.73;;;9.73;;
38944;SDS011;24732;49.088;8.286;2022-08-19T08:37:25;11.05;;;9.98;;
38944;SDS011;24732;49.088;8.286;2022-08-19T08:46:12;11.27;;;10.18;;
38944;SDS011;24732;49.088;8.286;2022-08-19T08:49:20;11.13;;;9.98;;
38944;SDS011;24732;49.088;8.286;2022-08-19T08:52:18;10.77;;;9.67;;
38944;SDS011;24732;49.088;8.286;2022-08-19T08:55:27;10.90;;;9.70;;
38944;SDS011;24732;49.088;8.286;2022-08-19T08:58:13;10.60;;;9.60;;
38944;SDS011;24732;49.088;8.286;2022-08-19T09:01:01;10.82;;;9.73;;
38944;SDS011;24732;49.088;8.286;2022-08-19T09:03:48;11.32;;;10.00;;
38944;SDS011;24732;49.088;8.286;2022-08-19T09:06:51;9.90;;;8.90;;
38944;SDS011;24732;49.088;8.286;2022-08-19T09:09:41;9.80;;;8.90;;
38944;SDS011;24732;49.088;8.286;2022-08-19T09:12:33;10.75;;;9.60;;
38944;SDS011;24732;49.088;8.286;2022-08-19T09:15:32;10.40;;;9.47;;
38944;SDS011;24732;49.088;8.286;2022-08-19T09:18:20;10.45;;;9.45;;
38944;SDS011;24732;49.088;8.286;2022-08-19T09:21:07;11.25;;;10.18;;
38944;SDS011;24732;49.088;8.286;2022-08-19T09:23:54;11.48;;;10.38;;
38944;SDS011;24732;49.088;8.286;2022-08-19T09:26:40;12.23;;;11.02;;
38944;SDS011;24732;49.088;8.286;2022-08-19T09:29:28;11.25;;;10.15;;
38944;SDS011;24732;49.088;8.286;2022-08-19T09:32:16;10.15;;;9.15;;
38944;SDS011;24732;49.088;8.286;2022-08-19T09:35:03;10.93;;;9.82;;
38944;SDS011;24732;49.088;8.286;2022-08-19T09:37:51;10.60;;;9.60;;
38944;SDS011;24732;49.088;8.286;2022-08-19T09:40:38;9.60;;;8.70;;
38944;SDS011;24732;49.088;8.286;2022-08-19T09:43:24;9.35;;;8.48;;
38944;SDS011;24732;49.088;8.286;2022-08-19T09:46:13;10.60;;;9.50;;
38944;SDS011;24732;49.088;8.286;2022-08-19T09:49:02;9.45;;;8.55;;
38944;SDS011;24732;49.088;8.286;2022-08-19T09:51:51;10.30;;;9.37;;
38944;SDS011;24732;49.088;8.286;2022-08-19T09:54:39;9.70;;;8.73;;
38944;SDS011;24732;49.088;8.286;2022-08-19T09:57:26;10.15;;;9.20;;
38944;SDS011;24732;49.088;8.286;2022-08-19T10:00:12;9.90;;;8.90;;
38944;SDS011;24732;49.088;8.286;2022-08-19T10:02:58;10.23;;;9.27;;
38944;SDS011;24732;49.088;8.286;2022-08-19T10:05:45;9.88;;;8.98;;
38944;SDS011;24732;49.088;8.286;2022-08-19T10:08:35;9.82;;;8.82;;
38944;SDS011;24732;49.088;8.286;2022-08-19T10:11:21;10.25;;;9.35;;
38944;SDS011;24732;49.088;8.286;2022-08-19T10:14:08;9.88;;;9.05;;
38944;SDS011;24732;49.088;8.286;2022-08-19T10:16:54;10.03;;;9.03;;
38944;SDS011;24732;49.088;8.286;2022-08-19T10:19:42;8.93;;;8.23;;
38944;SDS011;24732;49.088;8.286;2022-08-19T10:22:28;10.10;;;9.10;;
38944;SDS011;24732;49.088;8.286;2022-08-19T10:25:14;9.07;;;8.20;;
38944;SDS011;24732;49.088;8.286;2022-08-19T10:28:01;10.15;;;9.25;;
38944;SDS011;24732;49.088;8.286;2022-08-19T10:30:48;10.05;;;9.15;;
38944;SDS011;24732;49.088;8.286;2022-08-19T10:33:35;10.00;;;9.07;;
38944;SDS011;24732;49.088;8.286;2022-08-19T10:36:22;10.50;;;9.60;;
38944;SDS011;24732;49.088;8.286;2022-08-19T10:39:09;9.60;;;8.80;;
38944;SDS011;24732;49.088;8.286;2022-08-19T10:41:57;9.38;;;8.57;;
38944;SDS011;24732;49.088;8.286;2022-08-19T10:44:43;9.55;;;8.70;;
38944;SDS011;24732;49.088;8.286;2022-08-19T10:47:32;10.70;;;9.70;;
38944;SDS011;24732;49.088;8.286;2022-08-19T10:50:19;10.13;;;9.20;;
38944;SDS011;24732;49.088;8.286;2022-08-19T10:53:23;10.93;;;9.82;;
38944;SDS011;24732;49.088;8.286;2022-08-19T10:56:18;11.25;;;10.25;;
38944;SDS011;24732;49.088;8.286;2022-08-19T10:59:39;10.20;;;9.30;;
38944;SDS011;24732;49.088;8.286;2022-08-19T11:02:26;9.77;;;8.88;;
38944;SDS011;24732;49.088;8.286;2022-08-19T11:05:13;9.90;;;9.00;;
38944;SDS011;24732;49.088;8.286;2022-08-19T11:08:00;9.77;;;8.90;;
38944;SDS011;24732;49.088;8.286;2022-08-19T11:10:46;9.60;;;8.70;;
38944;SDS011;24732;49.088;8.286;2022-08-19T11:13:34;9.52;;;8.73;;
38944;SDS011;24732;49.088;8.286;2022-08-19T11:16:22;8.95;;;8.20;;
38944;SDS011;24732;49.088;8.286;2022-08-19T11:19:10;9.07;;;8.25;;
38944;SDS011;24732;49.088;8.286;2022-08-19T11:21:57;9.23;;;8.43;;
38944;SDS011;24732;49.088;8.286;2022-08-19T11:24:47;8.70;;;8.00;;
38944;SDS011;24732;49.088;8.286;2022-08-19T11:27:33;8.60;;;7.90;;
38944;SDS011;24732;49.088;8.286;2022-08-19T11:30:19;8.90;;;8.20;;
38944;SDS011;24732;49.088;8.286;2022-08-19T11:33:06;9.10;;;8.30;;
38944;SDS011;24732;49.088;8.286;2022-08-19T11:35:52;8.40;;;7.70;;
38944;SDS011;24732;49.088;8.286;2022-08-19T11:38:39;7.88;;;7.18;;
38944;SDS011;24732;49.088;8.286;2022-08-19T11:41:25;8.43;;;7.72;;
38944;SDS011;24732;49.088;8.286;2022-08-19T11:44:12;9.10;;;8.20;;
38944;SDS011;24732;49.088;8.286;2022-08-19T11:46:59;8.60;;;7.90;;
38944;SDS011;24732;49.088;8.286;2022-08-19T11:49:46;9.00;;;8.30;;
38944;SDS011;24732;49.088;8.286;2022-08-19T11:52:32;8.50;;;7.80;;
38944;SDS011;24732;49.088;8.286;2022-08-19T11:55:19;8.23;;;7.63;;
38944;SDS011;24732;49.088;8.286;2022-08-19T11:58:06;8.52;;;7.75;;
38944;SDS011;24732;49.088;8.286;2022-08-19T12:00:53;8.48;;;7.75;;
38944;SDS011;24732;49.088;8.286;2022-08-19T12:03:39;8.32;;;7.68;;
38944;SDS011;24732;49.088;8.286;2022-08-19T12:06:30;8.55;;;7.95;;
38944;SDS011;24732;49.088;8.286;2022-08-19T12:09:17;8.70;;;7.90;;
38944;SDS011;24732;49.088;8.286;2022-08-19T12:12:04;9.98;;;9.18;;
38944;SDS011;24732;49.088;8.286;2022-08-19T12:14:51;9.10;;;8.40;;
38944;SDS011;24732;49.088;8.286;2022-08-19T12:17:41;8.35;;;7.55;;
38944;SDS011;24732;49.088;8.286;2022-08-19T12:20:28;8.30;;;7.57;;
38944;SDS011;24732;49.088;8.286;2022-08-19T12:23:14;8.30;;;7.60;;
38944;SDS011;24732;49.088;8.286;2022-08-19T12:26:00;7.95;;;7.35;;
38944;SDS011;24732;49.088;8.286;2022-08-19T12:28:47;8.20;;;7.50;;
38944;SDS011;24732;49.088;8.286;2022-08-19T12:31:33;7.07;;;6.43;;
38944;SDS011;24732;49.088;8.286;2022-08-19T12:34:20;7.35;;;6.75;;
38944;SDS011;24732;49.088;8.286;2022-08-19T12:37:06;7.45;;;6.85;;
38944;SDS011;24732;49.088;8.286;2022-08-19T12:39:52;7.18;;;6.57;;
38944;SDS011;24732;49.088;8.286;2022-08-19T12:42:39;7.13;;;6.63;;
38944;SDS011;24732;49.088;8.286;2022-08-19T12:45:29;6.60;;;6.00;;
38944;SDS011;24732;49.088;8.286;2022-08-19T12:48:15;5.97;;;5.47;;
38944;SDS011;24732;49.088;8.286;2022-08-19T12:51:06;6.20;;;5.70;;
38944;SDS011;24732;49.088;8.286;2022-08-19T12:53:53;6.05;;;5.63;;
38944;SDS011;24732;49.088;8.286;2022-08-19T12:56:39;5.20;;;4.70;;
38944;SDS011;24732;49.088;8.286;2022-08-19T12:59:27;4.83;;;4.43;;
38944;SDS011;24732;49.088;8.286;2022-08-19T13:02:14;4.63;;;4.22;;
38944;SDS011;24732;49.088;8.286;2022-08-19T13:05:00;4.70;;;4.22;;
38944;SDS011;24732;49.088;8.286;2022-08-19T13:07:46;4.90;;;4.50;;
38944;SDS011;24732;49.088;8.286;2022-08-19T13:10:33;4.72;;;4.40;;
38944;SDS011;24732;49.088;8.286;2022-08-19T13:13:20;5.10;;;4.60;;
38944;SDS011;24732;49.088;8.286;2022-08-19T13:16:08;4.80;;;4.40;;
38944;SDS011;24732;49.088;8.286;2022-08-19T13:18:55;4.60;;;4.20;;
38944;SDS011;24732;49.088;8.286;2022-08-19T13:21:41;5.20;;;4.80;;
38944;SDS011;24732;49.088;8.286;2022-08-19T13:24:28;4.15;;;3.85;;
38944;SDS011;24732;49.088;8.286;2022-08-19T13:27:14;4.25;;;3.95;;
38944;SDS011;24732;49.088;8.286;2022-08-19T13:30:02;4.47;;;4.18;;
38944;SDS011;24732;49.088;8.286;2022-08-19T13:33:08;4.60;;;4.20;;
38944;SDS011;24732;49.088;8.286;2022-08-19T13:35:59;4.47;;;4.10;;
38944;SDS011;24732;49.088;8.286;2022-08-19T13:38:46;4.60;;;4.20;;
38944;SDS011;24732;49.088;8.286;2022-08-19T13:41:32;4.63;;;4.22;;
38944;SDS011;24732;49.088;8.286;2022-08-19T13:44:19;4.70;;;4.30;;
38944;SDS011;24732;49.088;8.286;2022-08-19T13:47:06;4.60;;;4.30;;
38944;SDS011;24732;49.088;8.286;2022-08-19T13:49:53;5.22;;;4.63;;
38944;SDS011;24732;49.088;8.286;2022-08-19T13:52:39;4.78;;;4.38;;
38944;SDS011;24732;49.088;8.286;2022-08-19T13:55:26;5.60;;;4.90;;
38944;SDS011;24732;49.088;8.286;2022-08-19T13:58:13;4.80;;;4.40;;
38944;SDS011;24732;49.088;8.286;2022-08-19T14:00:59;5.47;;;4.97;;
38944;SDS011;24732;49.088;8.286;2022-08-19T14:03:46;5.07;;;4.68;;
38944;SDS011;24732;49.088;8.286;2022-08-19T14:06:32;5.60;;;5.20;;
38944;SDS011;24732;49.088;8.286;2022-08-19T14:09:18;5.55;;;5.00;;
38944;SDS011;24732;49.088;8.286;2022-08-19T14:12:05;5.30;;;4.90;;
38944;SDS011;24732;49.088;8.286;2022-08-19T14:14:51;4.90;;;4.50;;
38944;SDS011;24732;49.088;8.286;2022-08-19T14:17:38;5.10;;;4.70;;
38944;SDS011;24732;49.088;8.286;2022-08-19T14:20:25;5.55;;;5.10;;
38944;SDS011;24732;49.088;8.286;2022-08-19T14:23:12;5.23;;;4.83;;
38944;SDS011;24732;49.088;8.286;2022-08-19T14:26:09;5.53;;;5.03;;
38944;SDS011;24732;49.088;8.286;2022-08-19T14:28:56;5.60;;;5.13;;
38944;SDS011;24732;49.088;8.286;2022-08-19T14:31:43;5.60;;;5.10;;
38944;SDS011;24732;49.088;8.286;2022-08-19T14:34:29;5.50;;;4.93;;
38944;SDS011;24732;49.088;8.286;2022-08-19T14:37:16;5.75;;;5.28;;
38944;SDS011;24732;49.088;8.286;2022-08-19T14:40:03;6.28;;;5.68;;
38944;SDS011;24732;49.088;8.286;2022-08-19T14:42:49;5.07;;;4.72;;
38944;SDS011;24732;49.088;8.286;2022-08-19T14:45:36;5.25;;;4.85;;
38944;SDS011;24732;49.088;8.286;2022-08-19T14:48:23;5.15;;;4.75;;
38944;SDS011;24732;49.088;8.286;2022-08-19T14:51:09;6.25;;;5.75;;
38944;SDS011;24732;49.088;8.286;2022-08-19T14:53:56;5.37;;;4.87;;
38944;SDS011;24732;49.088;8.286;2022-08-19T14:56:42;5.18;;;4.78;;
38944;SDS011;24732;49.088;8.286;2022-08-19T14:59:29;5.13;;;4.65;;
38944;SDS011;24732;49.088;8.286;2022-08-19T15:02:15;5.20;;;4.70;;
38944;SDS011;24732;49.088;8.286;2022-08-19T15:05:01;5.25;;;4.85;;
38944;SDS011;24732;49.088;8.286;2022-08-19T15:07:48;5.40;;;4.90;;
38944;SDS011;24732;49.088;8.286;2022-08-19T15:10:34;5.15;;;4.75;;
38944;SDS011;24732;49.088;8.286;2022-08-19T15:13:21;5.22;;;4.82;;
38944;SDS011;24732;49.088;8.286;2022-08-19T15:16:07;5.18;;;4.78;;
38944;SDS011;24732;49.088;8.286;2022-08-19T15:18:55;5.40;;;4.90;;
38944;SDS011;24732;49.088;8.286;2022-08-19T15:21:42;5.00;;;4.60;;
38944;SDS011;24732;49.088;8.286;2022-08-19T15:24:28;4.80;;;4.40;;
38944;SDS011;24732;49.088;8.286;2022-08-19T15:27:14;5.30;;;4.90;;
38944;SDS011;24732;49.088;8.286;2022-08-19T15:30:01;5.50;;;5.00;;
38944;SDS011;24732;49.088;8.286;2022-08-19T15:32:48;5.00;;;4.60;;
38944;SDS011;24732;49.088;8.286;2022-08-19T15:35:35;5.10;;;4.70;;
38944;SDS011;24732;49.088;8.286;2022-08-19T15:38:21;5.00;;;4.60;;
38944;SDS011;24732;49.088;8.286;2022-08-19T15:41:24;5.00;;;4.50;;
38944;SDS011;24732;49.088;8.286;2022-08-19T15:44:12;5.20;;;4.70;;
38944;SDS011;24732;49.088;8.286;2022-08-19T15:46:59;5.10;;;4.70;;
38944;SDS011;24732;49.088;8.286;2022-08-19T15:49:45;5.30;;;4.80;;
38944;SDS011;24732;49.088;8.286;2022-08-19T15:52:32;5.23;;;4.73;;
38944;SDS011;24732;49.088;8.286;2022-08-19T15:55:21;5.43;;;4.85;;
38944;SDS011;24732;49.088;8.286;2022-08-19T15:58:09;5.10;;;4.60;;
38944;SDS011;24732;49.088;8.286;2022-08-19T16:01:15;5.83;;;5.33;;
38944;SDS011;24732;49.088;8.286;2022-08-19T16:04:19;5.50;;;5.00;;
38944;SDS011;24732;49.088;8.286;2022-08-19T16:07:24;5.72;;;5.22;;
38944;SDS011;24732;49.088;8.286;2022-08-19T16:10:11;6.50;;;5.90;;
38944;SDS011;24732;49.088;8.286;2022-08-19T16:12:58;5.30;;;4.80;;
38944;SDS011;24732;49.088;8.286;2022-08-19T16:15:44;6.53;;;5.93;;
38944;SDS011;24732;49.088;8.286;2022-08-19T16:18:31;5.90;;;5.40;;
38944;SDS011;24732;49.088;8.286;2022-08-19T16:21:22;6.43;;;5.82;;
38944;SDS011;24732;49.088;8.286;2022-08-19T16:24:11;6.60;;;6.00;;
38944;SDS011;24732;49.088;8.286;2022-08-19T16:26:57;6.35;;;5.75;;
38944;SDS011;24732;49.088;8.286;2022-08-19T16:29:45;7.75;;;6.18;;
38944;SDS011;24732;49.088;8.286;2022-08-19T16:32:32;5.93;;;5.32;;
38944;SDS011;24732;49.088;8.286;2022-08-19T16:35:18;5.50;;;5.00;;
38944;SDS011;24732;49.088;8.286;2022-08-19T16:38:04;5.03;;;4.63;;
38944;SDS011;24732;49.088;8.286;2022-08-19T16:40:51;5.53;;;5.03;;
38944;SDS011;24732;49.088;8.286;2022-08-19T16:43:41;6.20;;;5.60;;
38944;SDS011;24732;49.088;8.286;2022-08-19T16:46:27;5.60;;;5.10;;